CMA CGM Thalassa — 5BNE2 — position and weather

sailwx.info

Track history (hours):
 
Tides and Currents Weather Stations Pressure Air Temp Water Temp Dewpoint Dewpoint Depression Visibility Wind Speed Wind Dir Waves Ship Positions

CMA CGM Thalassa

Last reported at 2014-Oct-25 18:31 UTC. Time now 2014-Oct-25 19:09 UTC.
Position N 51°20' E 003°12'.

Length 347 m; draft 12.7 m.

Type: Ship (hazmat cat A). MMSI: 212151000.

Date/timePositionNaut miles runAvg speedWind from/ knotsBaromVisibWave heightAir tempDewpointWater temp
2014-Oct-25 18:31N 51°20' E 003°12'0 0.0
2014-Oct-25 17:28N 51°20' E 003°12'0 0.0
2014-Oct-25 16:34N 51°20' E 003°12'0 0.0
2014-Oct-25 15:30N 51°20' E 003°12'0 0.0
2014-Oct-25 14:30N 51°20' E 003°12'0 0.0
2014-Oct-25 13:32N 51°20' E 003°12'0 0.0
2014-Oct-25 12:20N 51°20' E 003°12'0 0.3
2014-Oct-25 11:34N 51°20' E 003°12'5 5.3
2014-Oct-25 10:33N 51°24' E 003°05'1211.4
2014-Oct-25 09:30N 51°36' E 003°10'2121.4
2014-Oct-25 08:32N 51°56' E 003°19'1717.6
2014-Oct-25 07:34N 52°03' E 003°45'1212.2
2014-Oct-25 06:33N 51°59' E 004°04'2 2.2
2014-Oct-25 05:32N 51°57' E 004°04'0 0.0
2014-Oct-25 04:28N 51°57' E 004°04'0 0.0
2014-Oct-25 03:28N 51°57' E 004°04'0 0.0
2014-Oct-25 02:31N 51°57' E 004°04'0 0.0
2014-Oct-25 01:33N 51°57' E 004°04'0 0.0
2014-Oct-25 00:33N 51°57' E 004°04'0 0.0
2014-Oct-24 23:32N 51°57' E 004°04'0 0.0
2014-Oct-24 22:32N 51°57' E 004°04'0 0.0
2014-Oct-24 21:31N 51°57' E 004°04'0 0.0
2014-Oct-24 20:31N 51°57' E 004°04'0 0.0
2014-Oct-24 19:31N 51°57' E 004°04'0 0.0
2014-Oct-24 18:32N 51°57' E 004°04'0 0.0
2014-Oct-24 17:31N 51°57' E 004°04'0 0.0
2014-Oct-24 16:31N 51°57' E 004°04'0 0.0
2014-Oct-24 15:31N 51°57' E 004°04'0 0.0
2014-Oct-24 14:33N 51°57' E 004°04'0 0.0
2014-Oct-24 13:31N 51°57' E 004°04'0 0.0
2014-Oct-24 12:31N 51°57' E 004°04'0 0.0
2014-Oct-24 11:34N 51°57' E 004°04'0 0.0
2014-Oct-24 10:33N 51°57' E 004°04'0 0.0
2014-Oct-24 09:33N 51°57' E 004°04'0 0.4
2014-Oct-24 08:34N 51°57' E 004°05'4 4.5
2014-Oct-24 07:33N 51°60' E 003°59'7 7.2
2014-Oct-24 06:34N 51°59' E 003°47'2 1.6
2014-Oct-24 05:34N 52°00' E 003°50'8 7.6
2014-Oct-24 04:33N 52°07' E 003°46'5 5.2
2014-Oct-24 03:33N 52°12' E 003°43'1 0.8
2014-Oct-24 02:33N 52°12' E 003°44'1 0.6
2014-Oct-24 01:33N 52°12' E 003°44'2 1.7
2014-Oct-24 00:34N 52°13' E 003°47'4 4.2
2014-Oct-23 23:33N 52°17' E 003°47'6 5.8
2014-Oct-23 22:34N 52°23' E 003°49'6 5.9
2014-Oct-23 21:33N 52°28' E 003°51'6 6.2
2014-Oct-23 20:32N 52°35' E 003°53'42 6.0
2014-Oct-23 13:31N 53°12' E 004°25'7 7.3
2014-Oct-23 12:33N 53°19' E 004°30'8 7.4
2014-Oct-23 11:30N 53°26' E 004°36'6 6.7
2014-Oct-23 10:33N 53°29' E 004°44'7 7.5
2014-Oct-23 09:33N 53°32' E 004°56'7 6.8
2014-Oct-23 08:33N 53°35' E 005°06'6 6.3
2014-Oct-23 07:34N 53°37' E 005°16'6 5.8
2014-Oct-23 06:34N 53°39' E 005°25'7 7.4
2014-Oct-23 05:34N 53°41' E 005°37'8 8.0
2014-Oct-23 04:33N 53°44' E 005°50'9 9.2
2014-Oct-23 03:33N 53°47' E 006°05'1010.2
2014-Oct-23 02:32N 53°50' E 006°22'42 9.9
2014-Oct-22 22:20N 53°59' E 007°30'6 7.7
2014-Oct-22 21:34N 53°59' E 007°40'12 8.5
2014-Oct-22 20:11N 53°52' E 007°56'711.9
2014-Oct-22 19:34N 53°49' E 008°07'1313.1
2014-Oct-22 18:34N 53°40' E 008°23'7 7.1
2014-Oct-22 17:31N 53°35' E 008°32'0 0.0
2014-Oct-22 16:28N 53°35' E 008°32'0 0.0
2014-Oct-22 15:33N 53°35' E 008°32'0 0.0
2014-Oct-22 14:33N 53°35' E 008°32'0 0.0
2014-Oct-22 13:32N 53°35' E 008°32'0 0.0
2014-Oct-22 12:32N 53°35' E 008°32'0 0.0
2014-Oct-22 11:32N 53°35' E 008°32'0 0.0
2014-Oct-22 10:31N 53°35' E 008°32'0 0.0
2014-Oct-22 09:31N 53°35' E 008°32'0 0.0
2014-Oct-22 08:33N 53°35' E 008°32'0 0.0
2014-Oct-22 07:33N 53°35' E 008°32'0 0.0
2014-Oct-22 06:32N 53°35' E 008°32'0 0.0
2014-Oct-22 05:32N 53°35' E 008°32'0 0.0
2014-Oct-22 04:32N 53°35' E 008°32'0 0.0
2014-Oct-22 03:31N 53°35' E 008°32'0 0.0
2014-Oct-22 02:31N 53°35' E 008°32'0 0.0
2014-Oct-22 01:33N 53°35' E 008°32'0 0.0
2014-Oct-22 00:33N 53°35' E 008°32'0 0.0
2014-Oct-21 23:32N 53°35' E 008°32'0 0.0
2014-Oct-21 22:32N 53°35' E 008°32'0 0.0
2014-Oct-21 21:32N 53°35' E 008°32'0 0.0
2014-Oct-21 20:31N 53°35' E 008°32'0 0.0
2014-Oct-21 19:31N 53°35' E 008°32'0 0.0
2014-Oct-21 18:33N 53°35' E 008°32'0 0.0
2014-Oct-21 17:33N 53°35' E 008°32'0 0.0
2014-Oct-21 16:32N 53°35' E 008°32'0 0.0
2014-Oct-21 15:32N 53°35' E 008°32'0 0.0
2014-Oct-21 14:31N 53°35' E 008°32'0 0.0
2014-Oct-21 13:31N 53°35' E 008°32'0 0.0
2014-Oct-21 12:31N 53°35' E 008°32'0 0.0
2014-Oct-21 11:33N 53°35' E 008°32'0 0.0
2014-Oct-21 10:33N 53°35' E 008°32'0 0.0
2014-Oct-21 09:32N 53°35' E 008°32'0 0.0
2014-Oct-21 08:32N 53°35' E 008°32'0 0.0
2014-Oct-21 07:33N 53°35' E 008°32'0 0.0
2014-Oct-21 06:31N 53°35' E 008°32'2 1.7
2014-Oct-21 05:33N 53°36' E 008°31'9 9.3
2014-Oct-21 04:33N 53°42' E 008°19'1414.5
2014-Oct-21 03:33N 53°51' E 007°60'1212.1
2014-Oct-21 02:33N 53°59' E 007°45'5 4.6
2014-Oct-21 01:33N 53°60' E 007°53'1211.6
2014-Oct-21 00:33N 54°00' E 008°13'1414.5
2014-Oct-20 23:33N 53°58' E 008°37'1312.7
2014-Oct-20 22:34N 53°51' E 008°55'1312.5
2014-Oct-20 21:33N 53°52' E 009°16'1212.5
2014-Oct-20 20:33N 53°43' E 009°29'1211.9
2014-Oct-20 19:33N 53°34' E 009°43'7 7.4
2014-Oct-20 18:33N 53°32' E 009°55'0 0.0
2014-Oct-20 17:32N 53°32' E 009°55'0 0.0
2014-Oct-20 16:25N 53°32' E 009°55'0 0.0
2014-Oct-20 15:31N 53°32' E 009°55'0 0.0
2014-Oct-20 14:31N 53°32' E 009°55'0 0.0
2014-Oct-20 13:24N 53°32' E 009°55'0 0.0
2014-Oct-20 12:30N 53°32' E 009°55'0 0.0
2014-Oct-20 11:29N 53°32' E 009°55'0 0.0
2014-Oct-20 10:29N 53°32' E 009°55'0 0.0
2014-Oct-20 09:28N 53°32' E 009°55'0 0.0
2014-Oct-20 08:28N 53°32' E 009°55'0 0.0
2014-Oct-20 07:27N 53°32' E 009°55'0 0.0
2014-Oct-20 06:33N 53°32' E 009°55'0 0.0
2014-Oct-20 05:33N 53°32' E 009°55'0 0.0
2014-Oct-20 04:29N 53°32' E 009°55'0 0.0
2014-Oct-20 03:32N 53°32' E 009°55'0 0.0
2014-Oct-20 02:25N 53°32' E 009°55'0 0.0
2014-Oct-20 01:31N 53°32' E 009°55'0 0.0
2014-Oct-20 00:31N 53°32' E 009°55'0 0.0
2014-Oct-19 23:30N 53°32' E 009°55'0 0.0
2014-Oct-19 22:30N 53°32' E 009°55'0 0.0
2014-Oct-19 21:29N 53°32' E 009°55'0 0.0
2014-Oct-19 20:23N 53°32' E 009°55'0 0.0
2014-Oct-19 19:32N 53°32' E 009°55'0 0.0
2014-Oct-19 18:28N 53°32' E 009°55'0 0.0
2014-Oct-19 17:33N 53°32' E 009°55'0 0.0
2014-Oct-19 16:30N 53°32' E 009°55'0 0.0
2014-Oct-19 15:32N 53°32' E 009°55'0 0.0
2014-Oct-19 14:32N 53°32' E 009°55'0 0.0
2014-Oct-19 13:32N 53°32' E 009°55'0 0.0
2014-Oct-19 12:31N 53°32' E 009°55'0 0.0
2014-Oct-19 11:31N 53°32' E 009°55'0 0.0
2014-Oct-19 10:33N 53°32' E 009°55'0 0.0
2014-Oct-19 09:33N 53°32' E 009°55'0 0.0
2014-Oct-19 08:32N 53°32' E 009°55'0 0.0
2014-Oct-19 07:29N 53°32' E 009°55'0 0.0
2014-Oct-19 06:32N 53°32' E 009°55'0 0.0
2014-Oct-19 05:28N 53°32' E 009°55'0 0.0
2014-Oct-19 04:28N 53°32' E 009°55'0 0.0
2014-Oct-19 03:32N 53°32' E 009°55'0 0.0
2014-Oct-19 02:32N 53°32' E 009°55'0 0.0
2014-Oct-19 01:28N 53°32' E 009°55'0 0.0
2014-Oct-19 00:34N 53°32' E 009°55'0 0.0
2014-Oct-18 23:33N 53°32' E 009°55'4 3.6
2014-Oct-18 22:33N 53°33' E 009°49'1111.4
2014-Oct-18 21:33N 53°38' E 009°32'1313.4
2014-Oct-18 20:33N 53°50' E 009°21'1212.4
2014-Oct-18 19:33N 53°51' E 009°00'1414.3
2014-Oct-18 18:33N 53°57' E 008°38'1515.3
2014-Oct-18 17:34N 53°60' E 008°13'7 7.0
2014-Oct-18 16:33N 53°59' E 008°01'4 4.3
2014-Oct-18 15:33N 53°58' E 007°54'5 5.0
2014-Oct-18 14:33N 53°57' E 007°45'5 5.2
2014-Oct-18 13:33N 53°56' E 007°37'5 5.1
2014-Oct-18 12:33N 53°55' E 007°28'5 4.9
2014-Oct-18 11:33N 53°54' E 007°20'7 6.6
2014-Oct-18 10:31N 53°52' E 007°09'1311.2
2014-Oct-18 09:20N 53°49' E 006°47'810.8
2014-Oct-18 08:33N 53°47' E 006°33'1110.9
2014-Oct-18 07:33N 53°45' E 006°15'1111.0
2014-Oct-18 06:33N 53°41' E 005°58'1111.1
2014-Oct-18 05:33N 53°38' E 005°40'1111.3
2014-Oct-18 04:34N 53°34' E 005°22'1211.9
2014-Oct-18 03:34N 53°30' E 005°03'1313.4
2014-Oct-18 02:33N 53°23' E 004°43'1414.2
2014-Oct-18 01:33N 53°11' E 004°31'1414.3
2014-Oct-18 00:33N 52°59' E 004°20'1413.8
2014-Oct-17 23:33N 52°47' E 004°08'1413.9
2014-Oct-17 22:33N 52°39' E 003°49'1414.1
2014-Oct-17 21:33N 52°29' E 003°33'1714.1
2014-Oct-17 20:23N 52°15' E 003°17'1313.9
2014-Oct-17 19:25N 52°05' E 003°03'2513.5
2014-Oct-17 17:33N 51°45' E 002°37'1313.0
2014-Oct-17 16:33N 51°36' E 002°22'1312.7
2014-Oct-17 15:33N 51°27' E 002°08'1312.8
2014-Oct-17 14:33N 51°17' E 001°55'1312.9
2014-Oct-17 13:33N 51°07' E 001°42'1312.9
2014-Oct-17 12:33N 50°58' E 001°29'1313.3
2014-Oct-17 11:33N 50°45' E 001°22'2813.0
2014-Oct-17 09:23N 50°27' E 000°48'1113.6
2014-Oct-17 08:33N 50°24' E 000°30'4113.8
2014-Oct-17 05:33N 49°52' W 000°09'1615.9
2014-Oct-17 04:33N 49°36' W 000°10'1313.2
2014-Oct-17 03:33N 49°28' E 000°07'2 2.2
2014-Oct-17 02:32N 49°27' E 000°10'0 0.0
2014-Oct-17 01:29N 49°27' E 000°10'0 0.0
2014-Oct-17 00:28N 49°27' E 000°10'0 0.0
2014-Oct-16 23:28N 49°27' E 000°10'0 0.0
2014-Oct-16 22:33N 49°27' E 000°10'0 0.0
2014-Oct-16 21:33N 49°27' E 000°10'0 0.0
2014-Oct-16 20:23N 49°27' E 000°10'0 0.0
2014-Oct-16 18:32N 49°27' E 000°10'0 0.0
2014-Oct-16 17:07N 49°27' E 000°10'0 0.0
2014-Oct-16 16:28N 49°27' E 000°10'0 0.0
2014-Oct-16 15:30N 49°27' E 000°10'0 0.0
2014-Oct-16 14:30N 49°27' E 000°10'0 0.0
2014-Oct-16 13:17N 49°27' E 000°10'0 0.0
2014-Oct-16 12:32N 49°27' E 000°10'0 0.0
2014-Oct-16 11:32N 49°27' E 000°10'0 0.0
2014-Oct-16 10:25N 49°27' E 000°10'1 0.7
2014-Oct-16 09:33N 49°27' E 000°09'7 6.4
2014-Oct-16 08:29N 49°30' W 000°00'1112.3
2014-Oct-16 07:33N 49°34' W 000°17'1716.6
2014-Oct-16 06:33N 49°39' W 000°42'  
Track history (hours):
 
Tides and Currents Weather Stations Pressure Air Temp Water Temp Dewpoint Dewpoint Depression Visibility Wind Speed Wind Dir Waves Ship Positions

CMA CGM Thalassa

Last reported at 2014-Oct-25 18:31 UTC. Time now 2014-Oct-25 19:09 UTC.
Position N 51°20' E 003°12'.

Length 347 m; draft 12.7 m.

Type: Ship (hazmat cat A). MMSI: 212151000.

Date/timePositionNaut miles runAvg speedWind from/ knotsBaromVisibWave heightAir tempDewpointWater temp
2014-Oct-25 18:31N 51°20' E 003°12'0 0.0
2014-Oct-25 17:28N 51°20' E 003°12'0 0.0
2014-Oct-25 16:34N 51°20' E 003°12'0 0.0
2014-Oct-25 15:30N 51°20' E 003°12'0 0.0
2014-Oct-25 14:30N 51°20' E 003°12'0 0.0
2014-Oct-25 13:32N 51°20' E 003°12'0 0.0
2014-Oct-25 12:20N 51°20' E 003°12'0 0.3
2014-Oct-25 11:34N 51°20' E 003°12'5 5.3
2014-Oct-25 10:33N 51°24' E 003°05'1211.4
2014-Oct-25 09:30N 51°36' E 003°10'2121.4
2014-Oct-25 08:32N 51°56' E 003°19'1717.6
2014-Oct-25 07:34N 52°03' E 003°45'1212.2
2014-Oct-25 06:33N 51°59' E 004°04'2 2.2
2014-Oct-25 05:32N 51°57' E 004°04'0 0.0
2014-Oct-25 04:28N 51°57' E 004°04'0 0.0
2014-Oct-25 03:28N 51°57' E 004°04'0 0.0
2014-Oct-25 02:31N 51°57' E 004°04'0 0.0
2014-Oct-25 01:33N 51°57' E 004°04'0 0.0
2014-Oct-25 00:33N 51°57' E 004°04'0 0.0
2014-Oct-24 23:32N 51°57' E 004°04'0 0.0
2014-Oct-24 22:32N 51°57' E 004°04'0 0.0
2014-Oct-24 21:31N 51°57' E 004°04'0 0.0
2014-Oct-24 20:31N 51°57' E 004°04'0 0.0
2014-Oct-24 19:31N 51°57' E 004°04'0 0.0
2014-Oct-24 18:32N 51°57' E 004°04'0 0.0
2014-Oct-24 17:31N 51°57' E 004°04'0 0.0
2014-Oct-24 16:31N 51°57' E 004°04'0 0.0
2014-Oct-24 15:31N 51°57' E 004°04'0 0.0
2014-Oct-24 14:33N 51°57' E 004°04'0 0.0
2014-Oct-24 13:31N 51°57' E 004°04'0 0.0
2014-Oct-24 12:31N 51°57' E 004°04'0 0.0
2014-Oct-24 11:34N 51°57' E 004°04'0 0.0
2014-Oct-24 10:33N 51°57' E 004°04'0 0.0
2014-Oct-24 09:33N 51°57' E 004°04'0 0.4
2014-Oct-24 08:34N 51°57' E 004°05'4 4.5
2014-Oct-24 07:33N 51°60' E 003°59'7 7.2
2014-Oct-24 06:34N 51°59' E 003°47'2 1.6
2014-Oct-24 05:34N 52°00' E 003°50'8 7.6
2014-Oct-24 04:33N 52°07' E 003°46'5 5.2
2014-Oct-24 03:33N 52°12' E 003°43'1 0.8
2014-Oct-24 02:33N 52°12' E 003°44'1 0.6
2014-Oct-24 01:33N 52°12' E 003°44'2 1.7
2014-Oct-24 00:34N 52°13' E 003°47'4 4.2
2014-Oct-23 23:33N 52°17' E 003°47'6 5.8
2014-Oct-23 22:34N 52°23' E 003°49'6 5.9
2014-Oct-23 21:33N 52°28' E 003°51'6 6.2
2014-Oct-23 20:32N 52°35' E 003°53'42 6.0
2014-Oct-23 13:31N 53°12' E 004°25'7 7.3
2014-Oct-23 12:33N 53°19' E 004°30'8 7.4
2014-Oct-23 11:30N 53°26' E 004°36'6 6.7
2014-Oct-23 10:33N 53°29' E 004°44'7 7.5
2014-Oct-23 09:33N 53°32' E 004°56'7 6.8
2014-Oct-23 08:33N 53°35' E 005°06'6 6.3
2014-Oct-23 07:34N 53°37' E 005°16'6 5.8
2014-Oct-23 06:34N 53°39' E 005°25'7 7.4
2014-Oct-23 05:34N 53°41' E 005°37'8 8.0
2014-Oct-23 04:33N 53°44' E 005°50'9 9.2
2014-Oct-23 03:33N 53°47' E 006°05'1010.2
2014-Oct-23 02:32N 53°50' E 006°22'42 9.9
2014-Oct-22 22:20N 53°59' E 007°30'6 7.7
2014-Oct-22 21:34N 53°59' E 007°40'12 8.5
2014-Oct-22 20:11N 53°52' E 007°56'711.9
2014-Oct-22 19:34N 53°49' E 008°07'1313.1
2014-Oct-22 18:34N 53°40' E 008°23'7 7.1
2014-Oct-22 17:31N 53°35' E 008°32'0 0.0
2014-Oct-22 16:28N 53°35' E 008°32'0 0.0
2014-Oct-22 15:33N 53°35' E 008°32'0 0.0
2014-Oct-22 14:33N 53°35' E 008°32'0 0.0
2014-Oct-22 13:32N 53°35' E 008°32'0 0.0
2014-Oct-22 12:32N 53°35' E 008°32'0 0.0
2014-Oct-22 11:32N 53°35' E 008°32'0 0.0
2014-Oct-22 10:31N 53°35' E 008°32'0 0.0
2014-Oct-22 09:31N 53°35' E 008°32'0 0.0
2014-Oct-22 08:33N 53°35' E 008°32'0 0.0
2014-Oct-22 07:33N 53°35' E 008°32'0 0.0
2014-Oct-22 06:32N 53°35' E 008°32'0 0.0
2014-Oct-22 05:32N 53°35' E 008°32'0 0.0
2014-Oct-22 04:32N 53°35' E 008°32'0 0.0
2014-Oct-22 03:31N 53°35' E 008°32'0 0.0
2014-Oct-22 02:31N 53°35' E 008°32'0 0.0
2014-Oct-22 01:33N 53°35' E 008°32'0 0.0
2014-Oct-22 00:33N 53°35' E 008°32'0 0.0
2014-Oct-21 23:32N 53°35' E 008°32'0 0.0
2014-Oct-21 22:32N 53°35' E 008°32'0 0.0
2014-Oct-21 21:32N 53°35' E 008°32'0 0.0
2014-Oct-21 20:31N 53°35' E 008°32'0 0.0
2014-Oct-21 19:31N 53°35' E 008°32'0 0.0
2014-Oct-21 18:33N 53°35' E 008°32'0 0.0
2014-Oct-21 17:33N 53°35' E 008°32'0 0.0
2014-Oct-21 16:32N 53°35' E 008°32'0 0.0
2014-Oct-21 15:32N 53°35' E 008°32'0 0.0
2014-Oct-21 14:31N 53°35' E 008°32'0 0.0
2014-Oct-21 13:31N 53°35' E 008°32'0 0.0
2014-Oct-21 12:31N 53°35' E 008°32'0 0.0
2014-Oct-21 11:33N 53°35' E 008°32'0 0.0
2014-Oct-21 10:33N 53°35' E 008°32'0 0.0
2014-Oct-21 09:32N 53°35' E 008°32'0 0.0
2014-Oct-21 08:32N 53°35' E 008°32'0 0.0
2014-Oct-21 07:33N 53°35' E 008°32'0 0.0
2014-Oct-21 06:31N 53°35' E 008°32'2 1.7
2014-Oct-21 05:33N 53°36' E 008°31'9 9.3
2014-Oct-21 04:33N 53°42' E 008°19'1414.5
2014-Oct-21 03:33N 53°51' E 007°60'1212.1
2014-Oct-21 02:33N 53°59' E 007°45'5 4.6
2014-Oct-21 01:33N 53°60' E 007°53'1211.6
2014-Oct-21 00:33N 54°00' E 008°13'1414.5
2014-Oct-20 23:33N 53°58' E 008°37'1312.7
2014-Oct-20 22:34N 53°51' E 008°55'1312.5
2014-Oct-20 21:33N 53°52' E 009°16'1212.5
2014-Oct-20 20:33N 53°43' E 009°29'1211.9
2014-Oct-20 19:33N 53°34' E 009°43'7 7.4
2014-Oct-20 18:33N 53°32' E 009°55'0 0.0
2014-Oct-20 17:32N 53°32' E 009°55'0 0.0
2014-Oct-20 16:25N 53°32' E 009°55'0 0.0
2014-Oct-20 15:31N 53°32' E 009°55'0 0.0
2014-Oct-20 14:31N 53°32' E 009°55'0 0.0
2014-Oct-20 13:24N 53°32' E 009°55'0 0.0
2014-Oct-20 12:30N 53°32' E 009°55'0 0.0
2014-Oct-20 11:29N 53°32' E 009°55'0 0.0
2014-Oct-20 10:29N 53°32' E 009°55'0 0.0
2014-Oct-20 09:28N 53°32' E 009°55'0 0.0
2014-Oct-20 08:28N 53°32' E 009°55'0 0.0
2014-Oct-20 07:27N 53°32' E 009°55'0 0.0
2014-Oct-20 06:33N 53°32' E 009°55'0 0.0
2014-Oct-20 05:33N 53°32' E 009°55'0 0.0
2014-Oct-20 04:29N 53°32' E 009°55'0 0.0
2014-Oct-20 03:32N 53°32' E 009°55'0 0.0
2014-Oct-20 02:25N 53°32' E 009°55'0 0.0
2014-Oct-20 01:31N 53°32' E 009°55'0 0.0
2014-Oct-20 00:31N 53°32' E 009°55'0 0.0
2014-Oct-19 23:30N 53°32' E 009°55'0 0.0
2014-Oct-19 22:30N 53°32' E 009°55'0 0.0
2014-Oct-19 21:29N 53°32' E 009°55'0 0.0
2014-Oct-19 20:23N 53°32' E 009°55'0 0.0
2014-Oct-19 19:32N 53°32' E 009°55'0 0.0
2014-Oct-19 18:28N 53°32' E 009°55'0 0.0
2014-Oct-19 17:33N 53°32' E 009°55'0 0.0
2014-Oct-19 16:30N 53°32' E 009°55'0 0.0
2014-Oct-19 15:32N 53°32' E 009°55'0 0.0
2014-Oct-19 14:32N 53°32' E 009°55'0 0.0
2014-Oct-19 13:32N 53°32' E 009°55'0 0.0
2014-Oct-19 12:31N 53°32' E 009°55'0 0.0
2014-Oct-19 11:31N 53°32' E 009°55'0 0.0
2014-Oct-19 10:33N 53°32' E 009°55'0 0.0
2014-Oct-19 09:33N 53°32' E 009°55'0 0.0
2014-Oct-19 08:32N 53°32' E 009°55'0 0.0
2014-Oct-19 07:29N 53°32' E 009°55'0 0.0
2014-Oct-19 06:32N 53°32' E 009°55'0 0.0
2014-Oct-19 05:28N 53°32' E 009°55'0 0.0
2014-Oct-19 04:28N 53°32' E 009°55'0 0.0
2014-Oct-19 03:32N 53°32' E 009°55'0 0.0
2014-Oct-19 02:32N 53°32' E 009°55'0 0.0
2014-Oct-19 01:28N 53°32' E 009°55'0 0.0
2014-Oct-19 00:34N 53°32' E 009°55'0 0.0
2014-Oct-18 23:33N 53°32' E 009°55'4 3.6
2014-Oct-18 22:33N 53°33' E 009°49'1111.4
2014-Oct-18 21:33N 53°38' E 009°32'1313.4
2014-Oct-18 20:33N 53°50' E 009°21'1212.4
2014-Oct-18 19:33N 53°51' E 009°00'1414.3
2014-Oct-18 18:33N 53°57' E 008°38'1515.3
2014-Oct-18 17:34N 53°60' E 008°13'7 7.0
2014-Oct-18 16:33N 53°59' E 008°01'4 4.3
2014-Oct-18 15:33N 53°58' E 007°54'5 5.0
2014-Oct-18 14:33N 53°57' E 007°45'5 5.2
2014-Oct-18 13:33N 53°56' E 007°37'5 5.1
2014-Oct-18 12:33N 53°55' E 007°28'5 4.9
2014-Oct-18 11:33N 53°54' E 007°20'7 6.6
2014-Oct-18 10:31N 53°52' E 007°09'1311.2
2014-Oct-18 09:20N 53°49' E 006°47'810.8
2014-Oct-18 08:33N 53°47' E 006°33'1110.9
2014-Oct-18 07:33N 53°45' E 006°15'1111.0
2014-Oct-18 06:33N 53°41' E 005°58'1111.1
2014-Oct-18 05:33N 53°38' E 005°40'1111.3
2014-Oct-18 04:34N 53°34' E 005°22'1211.9
2014-Oct-18 03:34N 53°30' E 005°03'1313.4
2014-Oct-18 02:33N 53°23' E 004°43'1414.2
2014-Oct-18 01:33N 53°11' E 004°31'1414.3
2014-Oct-18 00:33N 52°59' E 004°20'1413.8
2014-Oct-17 23:33N 52°47' E 004°08'1413.9
2014-Oct-17 22:33N 52°39' E 003°49'1414.1
2014-Oct-17 21:33N 52°29' E 003°33'1714.1
2014-Oct-17 20:23N 52°15' E 003°17'1313.9
2014-Oct-17 19:25N 52°05' E 003°03'2513.5
2014-Oct-17 17:33N 51°45' E 002°37'1313.0
2014-Oct-17 16:33N 51°36' E 002°22'1312.7
2014-Oct-17 15:33N 51°27' E 002°08'1312.8
2014-Oct-17 14:33N 51°17' E 001°55'1312.9
2014-Oct-17 13:33N 51°07' E 001°42'1312.9
2014-Oct-17 12:33N 50°58' E 001°29'1313.3
2014-Oct-17 11:33N 50°45' E 001°22'2813.0
2014-Oct-17 09:23N 50°27' E 000°48'1113.6
2014-Oct-17 08:33N 50°24' E 000°30'4113.8
2014-Oct-17 05:33N 49°52' W 000°09'1615.9
2014-Oct-17 04:33N 49°36' W 000°10'1313.2
2014-Oct-17 03:33N 49°28' E 000°07'2 2.2
2014-Oct-17 02:32N 49°27' E 000°10'0 0.0
2014-Oct-17 01:29N 49°27' E 000°10'0 0.0
2014-Oct-17 00:28N 49°27' E 000°10'0 0.0
2014-Oct-16 23:28N 49°27' E 000°10'0 0.0
2014-Oct-16 22:33N 49°27' E 000°10'0 0.0
2014-Oct-16 21:33N 49°27' E 000°10'0 0.0
2014-Oct-16 20:23N 49°27' E 000°10'0 0.0
2014-Oct-16 18:32N 49°27' E 000°10'0 0.0
2014-Oct-16 17:07N 49°27' E 000°10'0 0.0
2014-Oct-16 16:28N 49°27' E 000°10'0 0.0
2014-Oct-16 15:30N 49°27' E 000°10'0 0.0
2014-Oct-16 14:30N 49°27' E 000°10'0 0.0
2014-Oct-16 13:17N 49°27' E 000°10'0 0.0
2014-Oct-16 12:32N 49°27' E 000°10'0 0.0
2014-Oct-16 11:32N 49°27' E 000°10'0 0.0
2014-Oct-16 10:25N 49°27' E 000°10'1 0.7
2014-Oct-16 09:33N 49°27' E 000°09'7 6.4
2014-Oct-16 08:29N 49°30' W 000°00'1112.3
2014-Oct-16 07:33N 49°34' W 000°17'1716.6
2014-Oct-16 06:33N 49°39' W 000°42'  

Dump ship's entire track history